SANTA FE DAM RAWS NEAR IRWINDALE 1NW ( HADS current weather conditions

sailwx.info

Wind from 318

Air temperature 17.2° C
Dewpoint 14.1° C

Last reported at 2017-Jun-29 11:57 UTC.
Time now 2017-Jun-29 12:45 UTC

Location: N 34°08' W 117°57'.
View on Google Maps.

See reports from other nearby stations

  
Tides and Currents Weather Stations Pressure Air Temp Water Temp Dewpoint Dewpoint Depression Visibility Wind Speed Wind Dir Waves Ship Positions
date/time (UTC)wind fromknots sea level pressurealtimeterstation pressurevisibilityair tempwater tempwave heightnotes
2017-Jun-29 11:57 318 17.2
2017-Jun-29 10:57 253 2 gusting 4 17.2
2017-Jun-29 09:57 246 2 gusting 5 16.7
2017-Jun-29 08:57 264 3 gusting 5 16.1
2017-Jun-29 07:57 252 3 gusting 4 16.1
2017-Jun-29 06:57 245 2 gusting 4 16.7
2017-Jun-29 05:57 239 2 gusting 6 17.2
2017-Jun-29 04:57 236 4 gusting 7 18.3
2017-Jun-29 03:57 241 4 gusting 8 20.0
2017-Jun-29 02:57 239 6 gusting 12 22.2
2017-Jun-29 01:57 241 6 gusting 12 26.1
2017-Jun-29 00:57 228 6 gusting 13 28.3
2017-Jun-28 23:57 237 7 gusting 14 29.4
2017-Jun-28 22:57 217 7 gusting 13 30.6
2017-Jun-28 21:57 210 6 gusting 13 31.7
2017-Jun-28 20:57 239 6 gusting 12 31.1
2017-Jun-28 19:57 259 6 gusting 12 30.6
2017-Jun-28 18:57 252 4 gusting 10 28.3
2017-Jun-28 17:57 232 3 gusting 8 26.7
2017-Jun-28 16:57 283 2 gusting 6 24.4
2017-Jun-28 15:57 264 3 gusting 6 21.7
2017-Jun-28 14:57 241 2 gusting 6 19.4
2017-Jun-28 13:57 256 2 gusting 4 17.2
2017-Jun-28 12:57 248 2 gusting 3 15.0
2017-Jun-28 11:57 264 1 gusting 5 15.0
2017-Jun-28 10:57 262 3 gusting 4 15.6
2017-Jun-28 09:57 261 4 gusting 6 17.2
2017-Jun-28 08:57 261 3 gusting 4 17.2
2017-Jun-28 07:57 235 1 gusting 4 17.8
2017-Jun-28 06:57 246 3 gusting 4 18.9
2017-Jun-28 05:57 233 2 gusting 4 19.4
2017-Jun-28 04:57 240 2 gusting 6 21.1
2017-Jun-28 03:57 233 3 gusting 6 23.3
2017-Jun-28 02:57 226 4 gusting 10 27.2
2017-Jun-28 01:57 228 6 gusting 10 30.6
2017-Jun-28 00:57 258 6 gusting 13 32.8
2017-Jun-27 23:57 250 7 gusting 15 33.9
2017-Jun-27 22:57 224 7 gusting 13 36.1
2017-Jun-27 21:57 228 6 gusting 13 36.1
2017-Jun-27 20:57 237 4 gusting 12 36.1
2017-Jun-27 19:57 240 5 gusting 9 34.4
2017-Jun-27 18:57 244 4 gusting 10 32.8
2017-Jun-27 17:57 238 5 gusting 10 31.7
2017-Jun-27 16:57 260 5 gusting 7 30.6
2017-Jun-27 15:57 337 1 gusting 6 30.0
2017-Jun-27 14:57 097 1 gusting 5 26.7
2017-Jun-27 13:57 075 0 gusting 2 22.2
2017-Jun-27 12:57 065 17.8